Time;durP1;ratioP1;P1;durP2;ratioP2;P2;SDS_P1;SDS_P2;PMS_P1;PMS_P2;Temp;Humidity;BMP_temperature;BMP_pressure;BME280_temperature;BME280_humidity;BME280_pressure;Samples;Min_cycle;Max_cycle;Signal;HPM_P1;HPM_P2
2022/03/31 00:00:00;;;;;;;0.88;0.88;;;;;;;10.04;51.86;99487.63;5187764;28;20026;-80
2022/03/31 00:02:56;;;;;;;1.02;1.02;;;;;;;10.02;52.03;99476.41;5134070;28;20042;-80
2022/03/31 00:05:51;;;;;;;0.75;0.75;;;;;;;9.91;52.98;99478.63;5168255;28;20041;-80
2022/03/31 00:08:30;;;;;;;0.95;0.95;;;;;;;9.91;52.17;99476.88;5159413;28;20053;-80
2022/03/31 00:11:06;;;;;;;0.30;0.30;;;;;;;9.82;52.57;99468.56;5172615;28;20036;-81
2022/03/31 00:13:41;;;;;;;5.28;1.60;;;;;;;9.82;52.71;99472.03;5178865;28;20038;-81
2022/03/31 00:16:12;;;;;;;1.00;0.80;;;;;;;9.80;52.85;99465.16;5172887;28;20140;-81
2022/03/31 00:18:45;;;;;;;0.52;0.52;;;;;;;9.89;52.62;99465.63;5198882;28;20050;-79
2022/03/31 00:21:26;;;;;;;;;;;;;;;9.99;52.15;99462.59;5173771;28;20025;-80
2022/03/31 00:23:59;;;;;;;1.60;1.50;;;;;;;10.03;52.15;99457.13;5198018;28;19953;-79
2022/03/31 00:26:34;;;;;;;0.73;0.73;;;;;;;10.03;51.88;99457.13;5182108;28;20135;-80
2022/03/31 00:29:05;;;;;;;0.50;0.50;;;;;;;10.07;52.70;99447.38;5196826;28;20606;-79
2022/03/31 00:31:40;;;;;;;1.02;1.02;;;;;;;10.06;52.85;99443.03;5162515;28;20057;-80
2022/03/31 00:34:28;;;;;;;;;;;;;;;;;;;;;
2022/03/31 00:37:19;;;;;;;0.40;0.40;;;;;;;10.00;52.75;99444.16;5173184;28;20038;-80
2022/03/31 00:39:49;;;;;;;0.35;0.35;;;;;;;9.64;55.34;99442.25;5170409;28;20053;-80
2022/03/31 00:42:21;;;;;;;0.50;0.50;;;;;;;9.79;53.82;99442.53;5171860;28;20132;-79
2022/03/31 00:44:55;;;;;;;0.50;0.50;;;;;;;9.81;54.14;99443.28;5169090;28;20037;-80
2022/03/31 00:47:34;;;;;;;0.40;0.40;;;;;;;9.91;52.79;99442.81;5156199;28;20034;-80
2022/03/31 00:50:26;;;;;;;1.23;1.13;;;;;;;9.96;53.39;99437.34;5164525;28;20029;-80
2022/03/31 00:53:17;;;;;;;2.50;1.27;;;;;;;9.92;53.19;99431.41;5186510;28;20037;-79
2022/03/31 00:55:50;;;;;;;1.20;1.20;;;;;;;9.65;55.51;99433.47;5181259;28;20034;-79
2022/03/31 00:58:33;;;;;;;19.98;1.10;;;;;;;9.61;54.85;99432.75;5156064;28;20128;-79
2022/03/31 01:01:11;;;;;;;0.47;0.47;;;;;;;9.86;54.18;99420.38;5161578;28;20076;-79
2022/03/31 01:03:47;;;;;;;1.67;1.05;;;;;;;9.81;53.40;99424.94;5185648;28;20034;-79
2022/03/31 01:06:35;;;;;;;0.85;0.85;;;;;;;9.71;55.23;99417.50;5166084;28;20517;-80
2022/03/31 01:09:14;;;;;;;1.27;1.23;;;;;;;9.83;55.02;99415.25;5170606;28;20060;-80
2022/03/31 01:11:47;;;;;;;0.82;0.82;;;;;;;9.64;54.64;99416.06;5179364;28;20096;-79
2022/03/31 01:14:30;;;;;;;1.20;1.10;;;;;;;9.83;54.22;99416.13;5179205;28;20057;-80
2022/03/31 01:17:18;;;;;;;0.70;0.70;;;;;;;9.48;56.12;99410.66;5171280;28;20038;-80
2022/03/31 01:20:12;;;;;;;0.50;0.50;;;;;;;9.71;55.08;99404.38;5179123;28;20030;-79
2022/03/31 01:22:44;;;;;;;0.90;0.85;;;;;;;9.75;54.96;99402.50;5152909;28;20452;-81
2022/03/31 01:25:14;;;;;;;1.70;1.60;;;;;;;9.65;55.44;99406.44;5187415;28;20228;-80
2022/03/31 01:27:46;;;;;;;0.80;0.80;;;;;;;9.56;56.39;99403.31;5177537;28;20058;-80
2022/03/31 01:30:21;;;;;;;1.02;1.02;;;;;;;9.54;56.28;99410.38;5184115;28;20021;-79
2022/03/31 01:32:54;;;;;;;0.73;0.73;;;;;;;9.69;55.05;99398.41;5183041;28;20116;-80
2022/03/31 01:35:25;;;;;;;0.85;0.85;;;;;;;9.66;56.53;99402.91;5166466;28;20117;-80
2022/03/31 01:37:59;;;;;;;0.93;0.93;;;;;;;9.67;56.34;99402.00;5153040;28;20041;-80
2022/03/31 01:40:34;;;;;;;1.20;1.20;;;;;;;9.58;56.83;99401.50;5152360;28;20500;-81
2022/03/31 01:43:08;;;;;;;1.42;1.33;;;;;;;9.69;55.81;99393.16;5145272;28;20053;-80
2022/03/31 01:45:41;;;;;;;1.10;0.77;;;;;;;9.53;56.55;99397.38;5155616;28;20038;-81
2022/03/31 01:48:12;;;;;;;1.08;1.08;;;;;;;9.63;55.88;99397.81;5200370;28;20026;-81
2022/03/31 01:50:43;;;;;;;1.00;1.00;;;;;;;9.67;55.11;99394.97;5210096;28;20034;-80
2022/03/31 01:53:19;;;;;;;0.77;0.68;;;;;;;9.67;54.74;99389.75;5180983;28;20033;-80
2022/03/31 01:55:54;;;;;;;2.15;1.85;;;;;;;9.76;55.20;99384.09;5181020;28;20026;-81
2022/03/31 01:58:25;;;;;;;0.63;0.63;;;;;;;9.69;54.77;99387.91;5181759;28;20620;-80
2022/03/31 02:00:59;;;;;;;1.23;1.23;;;;;;;9.68;55.81;99380.97;5182542;28;20085;-80
2022/03/31 02:03:29;;;;;;;;;;;;;;;9.70;55.87;99379.16;5200171;28;20536;-80
2022/03/31 02:06:02;;;;;;;1.05;0.98;;;;;;;9.74;55.71;99372.84;5179809;28;19972;-80
2022/03/31 02:08:33;;;;;;;0.73;0.73;;;;;;;9.62;56.15;99370.78;5186295;28;20084;-81
2022/03/31 02:11:22;;;;;;;;;;;;;;;;;;;;;
2022/03/31 02:14:01;;;;;;;2.85;2.13;;;;;;;9.61;56.67;99363.84;5198602;28;20069;-79
2022/03/31 02:16:35;;;;;;;0.75;0.75;;;;;;;9.47;57.20;99367.06;5179984;28;20034;-80
2022/03/31 02:19:16;;;;;;;0.95;0.95;;;;;;;9.55;55.77;99359.72;5180359;28;20030;-81
2022/03/31 02:21:47;;;;;;;0.55;0.55;;;;;;;9.59;55.24;99356.03;5184586;28;20060;-80
2022/03/31 02:24:23;;;;;;;0.93;0.93;;;;;;;9.61;55.90;99359.44;5164239;28;20034;-80
2022/03/31 02:27:04;;;;;;;;;;;;;;;;;;;;;
2022/03/31 02:29:38;;;;;;;0.88;0.88;;;;;;;9.52;56.24;99353.78;5181946;28;20571;-80
2022/03/31 02:32:10;;;;;;;0.68;0.68;;;;;;;9.57;55.75;99359.63;5199516;28;20575;-79
2022/03/31 02:34:44;;;;;;;1.02;1.02;;;;;;;9.62;55.88;99355.06;5199325;28;20034;-79
2022/03/31 02:37:15;;;;;;;0.68;0.68;;;;;;;9.66;55.79;99351.38;5173996;28;20125;-79
2022/03/31 02:39:46;;;;;;;1.17;1.17;;;;;;;9.57;55.94;99351.78;5183854;28;20033;-79
2022/03/31 02:42:17;;;;;;;0.88;0.88;;;;;;;9.51;55.81;99349.44;5179917;28;20049;-79
2022/03/31 02:44:49;;;;;;;1.58;1.48;;;;;;;9.59;55.49;99344.72;5160633;28;20030;-79
2022/03/31 02:47:23;;;;;;;1.42;1.20;;;;;;;9.61;55.88;99345.50;5215087;28;20052;-80
2022/03/31 02:49:54;;;;;;;0.40;0.40;;;;;;;9.59;56.44;99344.72;5188043;28;20029;-79
2022/03/31 02:52:25;;;;;;;1.60;1.50;;;;;;;9.63;56.39;99346.25;5183835;28;20092;-79
2022/03/31 02:57:56;;;;;;;0.63;0.63;;;;;;;9.54;56.47;99342.31;5185054;28;20068;-79
2022/03/31 03:00:34;;;;;;;0.73;0.73;;;;;;;9.61;57.37;99345.50;5182165;28;20029;-79
2022/03/31 03:03:15;;;;;;;0.45;0.45;;;;;;;9.63;56.33;99340.19;5171030;28;20041;-80
2022/03/31 03:05:46;;;;;;;1.50;1.40;;;;;;;9.56;56.78;99343.09;5170756;28;20040;-80
2022/03/31 03:08:20;;;;;;;0.60;0.60;;;;;;;9.59;56.82;99340.31;5186484;28;20061;-80
2022/03/31 03:10:54;;;;;;;5.40;0.75;;;;;;;9.57;57.97;99343.94;5182724;28;20099;-79
2022/03/31 03:13:25;;;;;;;1.40;1.30;;;;;;;9.61;56.61;99337.66;5166368;28;20500;-79
2022/03/31 03:15:56;;;;;;;0.80;0.80;;;;;;;9.68;56.93;99336.44;5186540;28;20105;-79
2022/03/31 03:18:26;;;;;;;1.90;1.80;;;;;;;9.60;57.29;99335.94;5188927;28;20038;-79
2022/03/31 03:20:57;;;;;;;0.73;0.73;;;;;;;9.59;58.01;99334.25;5182190;28;20026;-79
2022/03/31 03:23:27;;;;;;;1.83;1.70;;;;;;;9.57;57.23;99331.72;5186444;28;20137;-80
2022/03/31 03:25:59;;;;;;;1.52;1.48;;;;;;;9.62;57.46;99328.88;5173047;28;20057;-79
2022/03/31 03:28:36;;;;;;;1.95;1.33;;;;;;;9.63;58.22;99324.47;5197113;28;20041;-79
2022/03/31 03:31:10;;;;;;;1.05;1.05;;;;;;;9.65;57.45;99330.50;5184192;28;20030;-80
2022/03/31 03:33:44;;;;;;;1.05;1.05;;;;;;;9.67;58.56;99326.06;5180260;28;20053;-78
2022/03/31 03:36:38;;;;;;;0.68;0.68;;;;;;;9.64;58.77;99327.03;5182717;28;20045;-79
2022/03/31 03:39:11;;;;;;;1.00;1.00;;;;;;;9.57;57.73;99325.59;5184699;28;20622;-80
2022/03/31 03:41:46;;;;;;;3.50;1.95;;;;;;;9.63;57.21;99325.31;5161246;28;20803;-79
2022/03/31 03:44:16;;;;;;;1.98;1.77;;;;;;;9.64;57.34;99313.94;5187802;28;20021;-80
2022/03/31 03:46:47;;;;;;;0.50;0.50;;;;;;;9.52;58.77;99319.72;5218714;28;20046;-80
2022/03/31 03:49:18;;;;;;;2.38;2.15;;;;;;;9.47;58.49;99330.41;5224661;28;20439;-79
2022/03/31 03:51:52;;;;;;;1.33;1.23;;;;;;;9.43;58.42;99327.09;5192630;28;20038;-79
2022/03/31 03:54:22;;;;;;;1.10;1.10;;;;;;;9.31;60.12;99330.22;5188019;28;20018;-79
2022/03/31 03:56:58;;;;;;;1.67;1.58;;;;;;;9.50;58.62;99325.06;5180704;28;20096;-79
2022/03/31 03:59:28;;;;;;;1.20;1.20;;;;;;;9.54;58.34;99320.53;5157860;28;20037;-79
2022/03/31 04:02:01;;;;;;;1.92;1.02;;;;;;;9.44;58.94;99326.16;5169389;28;20042;-79
2022/03/31 04:04:41;;;;;;;1.25;1.25;;;;;;;9.42;59.28;99319.31;5179867;28;20030;-79
2022/03/31 04:07:11;;;;;;;0.88;0.88;;;;;;;9.40;59.37;99318.53;5191622;28;20061;-79
2022/03/31 04:09:42;;;;;;;0.63;0.63;;;;;;;9.50;58.67;99319.81;5181264;28;20059;-79
2022/03/31 04:12:13;;;;;;;0.68;0.68;;;;;;;9.31;60.09;99319.75;5185554;28;20041;-79
2022/03/31 04:14:44;;;;;;;2.25;1.33;;;;;;;9.32;60.14;99303.16;5186392;28;20042;-81
2022/03/31 04:17:15;;;;;;;0.85;0.85;;;;;;;9.34;59.28;99309.16;5174774;28;20104;-81
2022/03/31 04:19:46;;;;;;;1.17;1.00;;;;;;;9.19;61.34;99309.84;5182359;28;20026;-80
2022/03/31 04:22:20;;;;;;;2.38;2.17;;;;;;;9.29;60.56;99305.91;5148629;28;20045;-80
2022/03/31 04:24:50;;;;;;;1.00;1.00;;;;;;;9.40;59.85;99308.06;5165916;28;20034;-80
2022/03/31 04:27:23;;;;;;;0.95;0.95;;;;;;;9.28;59.85;99302.44;5183265;28;20108;-80
2022/03/31 04:29:56;;;;;;;1.50;1.40;;;;;;;9.43;60.08;99302.66;5163685;28;20056;-80
2022/03/31 04:32:30;;;;;;;3.38;3.08;;;;;;;9.07;61.25;99308.63;5184096;28;20061;-80
2022/03/31 04:35:02;;;;;;;1.55;1.45;;;;;;;8.74;66.24;99299.53;5166796;28;20025;-79
2022/03/31 04:37:40;;;;;;;2.25;1.77;;;;;;;8.98;63.15;99302.00;5177313;28;20401;-79
2022/03/31 04:40:14;;;;;;;2.08;1.88;;;;;;;8.92;63.99;99304.91;5177462;28;20103;-79
2022/03/31 04:42:46;;;;;;;2.05;1.65;;;;;;;8.96;61.75;99309.94;5171974;28;20034;-79
2022/03/31 04:45:24;;;;;;;0.77;0.77;;;;;;;8.87;62.65;99309.47;5184308;28;20048;-79
2022/03/31 04:47:57;;;;;;;2.67;1.20;;;;;;;8.94;61.89;99297.84;5182271;28;20137;-79
2022/03/31 04:50:27;;;;;;;1.65;1.55;;;;;;;8.85;62.34;99304.28;5198568;28;20506;-79
2022/03/31 04:53:01;;;;;;;1.52;1.42;;;;;;;8.94;61.91;99303.06;5175851;28;20100;-78
2022/03/31 04:55:35;;;;;;;1.38;1.27;;;;;;;8.98;61.35;99307.22;5183074;28;20030;-79
2022/03/31 04:58:07;;;;;;;0.98;0.98;;;;;;;9.04;61.21;99303.50;5159412;28;20489;-79
2022/03/31 05:00:41;;;;;;;2.22;1.25;;;;;;;9.02;61.51;99303.59;5181584;28;20030;-79
2022/03/31 05:03:12;;;;;;;1.20;1.10;;;;;;;9.00;60.89;99313.25;5169259;28;20061;-79
2022/03/31 05:05:42;;;;;;;1.25;1.15;;;;;;;9.04;61.20;99301.75;5191655;28;20046;-79
2022/03/31 05:08:13;;;;;;;1.83;1.73;;;;;;;9.03;60.94;99305.28;5181570;28;20042;-79
2022/03/31 05:10:46;;;;;;;1.05;1.05;;;;;;;8.98;61.06;99302.00;5177059;28;20117;-79
2022/03/31 05:13:17;;;;;;;2.90;1.75;;;;;;;9.06;61.87;99297.28;5163252;28;20111;-80
2022/03/31 05:15:47;;;;;;;0.90;0.75;;;;;;;8.96;61.92;99296.00;5184727;28;20022;-79
2022/03/31 05:18:18;;;;;;;1.88;1.75;;;;;;;8.97;60.94;99305.53;5196646;28;20050;-79
2022/03/31 05:20:55;;;;;;;1.80;1.70;;;;;;;8.96;61.22;99309.94;5197298;28;20021;-83
2022/03/31 05:23:26;;;;;;;1.25;1.25;;;;;;;9.00;61.71;99294.94;5183886;28;20038;-80
2022/03/31 05:26:08;;;;;;;4.55;2.35;;;;;;;9.04;62.01;99299.16;5168960;28;20032;-82
2022/03/31 05:28:42;;;;;;;1.40;1.38;;;;;;;8.90;62.55;99299.75;5166805;28;20125;-81
2022/03/31 05:31:14;;;;;;;3.10;2.47;;;;;;;9.01;61.18;99296.66;5182288;28;20111;-80
2022/03/31 05:33:44;;;;;;;2.05;1.80;;;;;;;8.67;65.39;99303.31;5194903;28;20100;-78
2022/03/31 05:36:17;;;;;;;1.75;1.65;;;;;;;8.94;61.97;99297.84;5180122;28;20107;-79
2022/03/31 05:38:48;;;;;;;1.60;1.55;;;;;;;8.88;62.16;99295.50;5172126;28;20042;-79
2022/03/31 05:41:19;;;;;;;1.48;1.38;;;;;;;8.81;62.58;99298.34;5176982;28;20027;-79
2022/03/31 05:43:49;;;;;;;0.52;0.52;;;;;;;8.67;63.73;99298.09;5174697;28;20046;-78
2022/03/31 05:46:35;;;;;;;1.98;1.77;;;;;;;8.75;63.18;99300.41;5173004;28;20037;-78
2022/03/31 05:49:10;;;;;;;1.75;1.65;;;;;;;8.39;65.59;99295.75;5178546;28;20021;-78
2022/03/31 05:51:43;;;;;;;1.20;1.20;;;;;;;8.71;62.94;99294.44;5190726;28;20057;-80
2022/03/31 05:54:14;;;;;;;2.75;2.40;;;;;;;8.60;63.35;99296.66;5184460;28;20018;-80
2022/03/31 05:56:45;;;;;;;2.08;1.98;;;;;;;8.74;62.85;99293.47;5167782;28;20054;-79
2022/03/31 05:59:16;;;;;;;1.50;1.48;;;;;;;8.51;63.63;99287.44;5161949;28;20520;-79
2022/03/31 06:01:46;;;;;;;1.63;1.52;;;;;;;8.70;63.34;99292.75;5177778;28;20367;-79
2022/03/31 06:04:20;;;;;;;2.15;2.05;;;;;;;8.76;62.51;99286.41;5196767;28;20546;-80
2022/03/31 06:06:51;;;;;;;0.50;0.50;;;;;;;8.75;62.51;99289.94;5162142;28;20033;-80
2022/03/31 06:09:22;;;;;;;2.60;2.38;;;;;;;8.77;62.41;99291.56;5176987;28;20136;-79
2022/03/31 06:11:53;;;;;;;1.98;1.73;;;;;;;8.88;61.89;99291.09;5175160;28;20030;-78
2022/03/31 06:14:23;;;;;;;1.95;1.52;;;;;;;8.90;62.55;99296.25;5176893;28;20753;-82
2022/03/31 06:16:57;;;;;;;1.55;1.38;;;;;;;8.93;61.67;99299.59;5195294;28;20040;-79
2022/03/31 06:19:27;;;;;;;;;;;;;;;8.92;61.98;99297.03;5177650;28;20514;-80
2022/03/31 06:22:04;;;;;;;2.15;1.98;;;;;;;8.92;62.54;99291.81;5170195;28;19960;-81
2022/03/31 06:24:45;;;;;;;1.77;1.65;;;;;;;8.48;64.37;99288.38;5149275;28;20049;-80
2022/03/31 06:27:20;;;;;;;3.40;2.22;;;;;;;8.58;63.26;99293.25;5165478;28;20041;-79
2022/03/31 06:30:05;;;;;;;6.63;2.95;;;;;;;8.75;62.42;99298.63;5174201;28;20109;-80
2022/03/31 06:32:37;;;;;;;1.63;1.52;;;;;;;8.80;62.27;99298.41;5141479;28;20524;-80
2022/03/31 06:35:11;;;;;;;1.77;1.52;;;;;;;8.84;61.98;99296.53;5164943;28;20523;-79
2022/03/31 06:37:44;;;;;;;4.45;3.40;;;;;;;8.84;62.41;99309.59;5163544;28;20073;-80
2022/03/31 06:40:18;;;;;;;1.35;1.30;;;;;;;8.70;63.50;99300.59;5175535;28;20096;-79
2022/03/31 06:42:50;;;;;;;0.60;0.60;;;;;;;8.76;62.31;99302.94;5194956;28;20069;-80
2022/03/31 06:45:25;;;;;;;1.17;1.08;;;;;;;8.84;61.45;99296.53;5181944;28;20481;-80
2022/03/31 06:47:57;;;;;;;1.27;1.25;;;;;;;8.75;63.28;99301.22;5195838;28;20041;-81
2022/03/31 06:50:34;;;;;;;2.05;1.88;;;;;;;8.84;62.19;99305.25;5181725;28;20084;-80
2022/03/31 06:53:05;;;;;;;1.00;1.00;;;;;;;8.75;63.94;99296.00;5157277;28;20034;-81
2022/03/31 06:55:38;;;;;;;1.55;1.05;;;;;;;8.80;63.29;99299.25;5196281;28;20074;-81
2022/03/31 06:58:09;;;;;;;1.20;1.20;;;;;;;8.59;65.20;99294.94;5197098;28;20194;-80
2022/03/31 07:00:40;;;;;;;1.67;1.45;;;;;;;8.48;65.81;99298.00;5194326;28;20273;-78
2022/03/31 07:03:10;;;;;;;1.00;0.90;;;;;;;8.48;64.56;99298.84;5159558;28;20501;-79
2022/03/31 07:05:41;;;;;;;1.50;1.48;;;;;;;8.64;63.12;99299.06;5190353;28;20045;-80
2022/03/31 07:08:12;;;;;;;1.25;1.15;;;;;;;8.73;62.82;99297.00;5176848;28;20042;-80
2022/03/31 07:10:44;;;;;;;1.30;1.20;;;;;;;8.74;62.72;99303.91;5160181;28;20066;-80
2022/03/31 07:13:18;;;;;;;1.55;1.45;;;;;;;8.84;62.06;99299.13;5155984;28;20089;-80
2022/03/31 07:15:49;;;;;;;1.60;1.50;;;;;;;8.66;63.43;99297.25;5182378;28;20026;-80
2022/03/31 07:18:20;;;;;;;1.48;1.40;;;;;;;8.75;62.64;99305.63;5176419;28;20063;-80
2022/03/31 07:20:50;;;;;;;1.55;1.45;;;;;;;8.88;62.65;99305.94;5198874;28;20321;-79
2022/03/31 07:23:23;;;;;;;1.45;1.38;;;;;;;8.91;62.24;99311.03;5166672;28;20117;-79
2022/03/31 07:25:55;;;;;;;2.20;1.87;;;;;;;8.92;61.83;99312.75;5184734;28;20091;-80
2022/03/31 07:28:26;;;;;;;1.70;1.60;;;;;;;9.00;61.80;99315.88;5192759;28;20273;-80
2022/03/31 07:30:57;;;;;;;3.17;2.47;;;;;;;9.02;61.15;99314.06;5167467;28;20084;-81
2022/03/31 07:33:28;;;;;;;1.70;1.60;;;;;;;9.01;62.39;99314.97;5181456;28;20719;-80
2022/03/31 07:36:01;;;;;;;2.65;2.45;;;;;;;9.01;61.89;99309.72;5163950;28;20126;-80
2022/03/31 07:38:35;;;;;;;0.77;0.77;;;;;;;9.06;61.30;99309.53;5198684;28;20048;-80
2022/03/31 07:41:09;;;;;;;2.53;2.33;;;;;;;9.06;61.25;99310.38;5164107;28;20026;-80
2022/03/31 07:43:40;;;;;;;0.70;0.70;;;;;;;9.10;61.52;99308.47;5177719;28;20089;-80
2022/03/31 07:46:14;;;;;;;2.00;1.67;;;;;;;9.13;61.99;99306.56;5182012;28;20315;-80
2022/03/31 07:55:26;;;;;;;0.95;0.95;;;;;;;9.07;63.33;99296.38;5172667;28;20021;-81
2022/03/31 08:06:40;;;;;;;1.38;1.27;;;;;;;9.10;62.35;99298.00;5107226;29;20048;-81
2022/03/31 08:15:22;;;;;;;0.98;0.90;;;;;;;9.24;61.80;99286.94;5020859;29;20044;-82
2022/03/31 08:18:47;;;;;;;1.60;1.45;;;;;;;9.37;61.92;99288.09;5046553;29;20043;-82
2022/03/31 08:25:48;;;;;;;1.33;1.23;;;;;;;9.28;61.43;99291.13;5261335;22;20059;-83
2022/03/31 08:28:20;;;;;;;2.15;2.05;;;;;;;9.29;61.63;99296.28;5222675;28;20451;-83
2022/03/31 08:30:51;;;;;;;0.93;0.93;;;;;;;9.31;61.11;99298.81;5225251;28;20039;-83
2022/03/31 08:33:22;;;;;;;2.00;1.90;;;;;;;9.32;61.00;99297.91;5203224;28;20495;-82
2022/03/31 08:35:52;;;;;;;1.95;1.80;;;;;;;9.33;60.89;99298.78;5228921;28;20052;-83
2022/03/31 08:38:23;;;;;;;1.60;1.50;;;;;;;9.41;60.38;99294.88;5224051;28;20053;-83
2022/03/31 08:40:54;;;;;;;2.42;2.33;;;;;;;9.45;60.54;99296.47;5208710;28;20743;-83
2022/03/31 08:43:27;;;;;;;10.10;2.47;;;;;;;9.47;60.61;99299.00;5220156;28;20030;-83
2022/03/31 08:45:58;;;;;;;;;;;;;;;9.42;60.29;99301.81;5212053;28;20044;-83
2022/03/31 08:48:28;;;;;;;0.95;0.95;;;;;;;9.39;60.95;99303.72;5204238;28;19920;-83
2022/03/31 08:50:59;;;;;;;1.23;1.17;;;;;;;9.45;60.63;99300.81;5226756;28;20036;-83
2022/03/31 08:53:30;;;;;;;1.40;1.30;;;;;;;9.42;60.42;99303.59;5202643;28;20077;-83
2022/03/31 08:56:05;;;;;;;6.80;0.93;;;;;;;9.41;60.49;99300.13;5225140;28;20021;-84
2022/03/31 08:58:36;;;;;;;2.03;1.05;;;;;;;9.40;61.09;99308.88;5245414;28;20055;-83
2022/03/31 09:01:08;;;;;;;2.58;1.65;;;;;;;9.42;60.22;99301.81;5246199;28;20052;-83
2022/03/31 09:03:42;;;;;;;1.65;1.15;;;;;;;9.42;60.14;99301.81;5212324;28;20037;-83
2022/03/31 09:06:23;;;;;;;4.22;2.35;;;;;;;9.42;60.02;99306.22;5202199;28;20561;-83
2022/03/31 09:08:59;;;;;;;1.08;1.08;;;;;;;9.38;60.57;99307.25;5235726;28;20048;-83
2022/03/31 09:11:37;;;;;;;1.63;1.40;;;;;;;9.33;61.05;99307.47;5198689;28;20119;-83
2022/03/31 09:14:07;;;;;;;1.55;1.48;;;;;;;9.38;59.83;99310.72;5194447;28;20051;-83
2022/03/31 09:16:38;;;;;;;1.58;1.48;;;;;;;9.32;60.60;99311.00;5205398;28;20116;-83
2022/03/31 09:19:11;;;;;;;1.20;1.17;;;;;;;9.25;60.41;99315.66;5214787;28;20024;-83
2022/03/31 09:21:57;;;;;;;3.10;2.67;;;;;;;9.33;60.15;99310.09;5253435;28;20029;-83
2022/03/31 09:24:29;;;;;;;1.38;1.27;;;;;;;9.33;60.14;99312.69;5219956;28;20284;-84
2022/03/31 09:27:01;;;;;;;8.52;2.22;;;;;;;9.38;60.02;99309.88;5183107;28;20051;-84
2022/03/31 09:29:33;;;;;;;1.33;1.25;;;;;;;9.35;60.12;99308.25;5205646;28;20036;-84
2022/03/31 09:32:09;;;;;;;1.45;1.35;;;;;;;9.27;60.69;99310.34;5200546;28;20490;-84
2022/03/31 09:34:45;;;;;;;1.70;1.63;;;;;;;9.06;62.09;99305.13;5217817;28;20597;-84
2022/03/31 09:37:16;;;;;;;0.75;0.75;;;;;;;9.19;61.26;99309.84;5218871;28;20052;-84
2022/03/31 09:39:56;;;;;;;1.15;1.15;;;;;;;9.12;61.24;99311.88;5199439;28;20033;-84
2022/03/31 09:42:26;;;;;;;1.38;1.27;;;;;;;9.18;61.14;99308.16;5210550;28;20099;-84
2022/03/31 09:44:58;;;;;;;1.55;1.45;;;;;;;9.19;61.48;99310.69;5219123;28;20599;-84
2022/03/31 09:47:29;;;;;;;1.35;1.25;;;;;;;9.20;61.53;99314.16;5229085;28;20033;-84
2022/03/31 09:50:00;;;;;;;1.90;1.80;;;;;;;9.26;61.33;99311.28;5189754;28;20092;-84
2022/03/31 09:52:30;;;;;;;1.50;1.40;;;;;;;9.20;60.83;99312.38;5219411;28;20069;-83
2022/03/31 09:55:01;;;;;;;2.28;2.10;;;;;;;9.17;61.15;99312.53;5224645;28;20405;-86
2022/03/31 09:57:34;;;;;;;0.93;0.93;;;;;;;9.10;61.61;99316.31;5218896;28;20045;-85
2022/03/31 10:00:06;;;;;;;0.98;0.98;;;;;;;9.17;61.25;99316.91;5219645;28;20040;-84
2022/03/31 10:02:37;;;;;;;0.90;0.90;;;;;;;9.20;60.95;99312.38;5204138;28;20132;-84
2022/03/31 10:05:08;;;;;;;4.78;2.63;;;;;;;9.18;61.03;99318.63;5209447;28;20040;-85
2022/03/31 10:07:39;;;;;;;1.17;1.17;;;;;;;9.17;61.23;99315.16;5211343;28;20048;-84
2022/03/31 10:10:10;;;;;;;0.70;0.70;;;;;;;9.17;60.93;99323.00;5205180;28;20037;-82
2022/03/31 10:12:47;;;;;;;1.27;1.20;;;;;;;9.20;61.37;99316.78;5191453;28;20056;-82
2022/03/31 10:15:30;;;;;;;1.20;1.20;;;;;;;9.19;61.29;99320.31;5215418;28;20043;-83
2022/03/31 10:18:00;;;;;;;2.07;1.63;;;;;;;9.17;61.79;99316.91;5193940;28;20044;-83
2022/03/31 10:20:31;;;;;;;12.63;1.05;;;;;;;9.16;61.39;99325.66;5201770;28;20032;-82
2022/03/31 10:25:55;;;;;;;1.73;1.63;;;;;;;9.18;61.21;99318.63;5204246;28;20065;-83
2022/03/31 10:28:25;;;;;;;1.63;1.52;;;;;;;9.11;61.17;99316.28;5219381;28;20554;-83
2022/03/31 10:31:02;;;;;;;0.82;0.82;;;;;;;9.09;61.81;99320.72;5202090;28;20040;-83
2022/03/31 10:33:42;;;;;;;1.00;1.00;;;;;;;9.05;61.45;99313.06;5216454;28;20557;-82
2022/03/31 10:36:15;;;;;;;0.85;0.85;;;;;;;9.03;61.87;99312.28;5220375;28;20043;-82
2022/03/31 10:38:53;;;;;;;2.17;2.05;;;;;;;9.08;61.32;99313.78;5218955;28;20041;-82
2022/03/31 10:41:31;;;;;;;1.10;1.10;;;;;;;9.11;61.35;99313.66;5217949;28;20037;-83
2022/03/31 10:44:16;;;;;;;3.42;2.70;;;;;;;9.10;60.82;99317.19;5213536;28;20443;-82
2022/03/31 10:47:00;;;;;;;3.20;1.70;;;;;;;8.97;61.79;99310.75;5185133;28;20514;-83
2022/03/31 10:49:32;;;;;;;2.60;1.95;;;;;;;9.00;61.62;99310.66;5218754;28;20128;-83
2022/03/31 10:52:19;;;;;;;1.77;1.33;;;;;;;8.97;61.51;99310.75;5221513;28;20433;-83
2022/03/31 10:54:51;;;;;;;2.28;1.15;;;;;;;8.99;61.65;99306.31;5230801;28;20118;-83
2022/03/31 10:57:22;;;;;;;1.58;1.48;;;;;;;9.01;61.30;99314.97;5215039;28;20033;-83
2022/03/31 10:59:54;;;;;;;1.05;1.05;;;;;;;9.04;61.60;99312.22;5220590;28;20500;-83
2022/03/31 11:02:26;;;;;;;4.53;1.58;;;;;;;9.02;61.08;99314.06;5241512;28;20038;-83
2022/03/31 11:04:58;;;;;;;1.48;1.00;;;;;;;9.08;61.32;99307.72;5223042;28;20040;-84
2022/03/31 11:07:28;;;;;;;1.95;1.85;;;;;;;9.06;60.59;99304.31;5224497;28;20080;-83
2022/03/31 11:10:01;;;;;;;1.48;1.45;;;;;;;9.09;60.65;99309.41;5226173;28;20111;-84
2022/03/31 11:12:33;;;;;;;1.13;1.05;;;;;;;9.08;61.19;99305.09;5199149;28;20488;-83
2022/03/31 11:15:12;;;;;;;0.52;0.52;;;;;;;8.96;62.26;99309.94;5217134;28;20048;-84
2022/03/31 11:17:44;;;;;;;2.63;2.42;;;;;;;8.94;62.19;99305.69;5197659;28;20071;-82
2022/03/31 11:20:23;;;;;;;1.05;1.05;;;;;;;9.02;61.03;99306.19;5218685;28;20035;-83
2022/03/31 11:22:56;;;;;;;0.68;0.68;;;;;;;8.90;62.81;99309.34;5223916;28;20044;-82
2022/03/31 11:25:27;;;;;;;0.77;0.77;;;;;;;9.01;61.55;99301.03;5224549;28;20043;-81
2022/03/31 11:28:05;;;;;;;1.02;0.88;;;;;;;9.01;61.63;99296.66;5220768;28;20036;-81
2022/03/31 11:30:37;;;;;;;1.25;1.23;;;;;;;9.00;61.80;99299.34;5225318;28;20144;-82
2022/03/31 11:33:11;;;;;;;3.63;1.83;;;;;;;9.03;61.25;99293.97;5224596;28;20029;-83
2022/03/31 11:35:43;;;;;;;1.60;1.50;;;;;;;9.04;61.72;99288.69;5205750;28;20029;-81
2022/03/31 11:38:17;;;;;;;1.40;1.33;;;;;;;8.96;62.11;99293.41;5223192;28;20299;-81
2022/03/31 11:40:49;;;;;;;2.42;2.22;;;;;;;9.00;62.22;99288.88;5221971;28;20487;-84
2022/03/31 11:43:20;;;;;;;1.35;1.35;;;;;;;8.99;62.55;99288.00;5212710;28;20454;-84
2022/03/31 11:45:55;;;;;;;4.07;0.95;;;;;;;9.08;62.06;99294.63;5217720;28;20038;-83
2022/03/31 11:48:39;;;;;;;2.75;2.55;;;;;;;8.96;62.73;99293.41;5184451;28;20595;-84
2022/03/31 11:51:10;;;;;;;2.90;2.70;;;;;;;8.61;64.72;99290.50;5204784;28;20159;-84
2022/03/31 11:53:43;;;;;;;6.80;2.33;;;;;;;8.64;64.32;99288.63;5209926;28;20140;-84
2022/03/31 11:56:22;;;;;;;2.30;2.20;;;;;;;8.60;64.55;99294.03;5209706;28;20025;-84
2022/03/31 11:58:57;;;;;;;3.47;3.17;;;;;;;8.65;63.90;99292.06;5212222;28;20118;-83
2022/03/31 12:01:37;;;;;;;1.25;1.25;;;;;;;8.31;65.94;99290.81;5209900;28;20262;-82
2022/03/31 12:04:17;;;;;;;3.13;2.72;;;;;;;8.45;64.24;99285.03;5193658;28;20614;-82
2022/03/31 12:06:50;;;;;;;0.80;0.80;;;;;;;8.09;67.00;99291.69;5217555;28;20044;-83
2022/03/31 12:09:26;;;;;;;1.40;1.38;;;;;;;7.91;68.17;99292.41;5212565;28;20034;-84
2022/03/31 12:11:59;;;;;;;4.18;3.05;;;;;;;8.18;65.03;99296.53;5215164;28;20060;-82
2022/03/31 12:14:31;;;;;;;1.42;1.35;;;;;;;8.07;66.40;99297.88;5203563;28;20035;-83
2022/03/31 12:17:01;;;;;;;1.98;1.35;;;;;;;7.85;67.78;99298.75;5205412;28;20040;-84
2022/03/31 12:19:40;;;;;;;1.38;1.35;;;;;;;7.95;66.63;99294.00;5245825;28;20037;-84
2022/03/31 12:22:11;;;;;;;1.63;1.13;;;;;;;8.09;65.35;99286.47;5205418;28;20037;-85
2022/03/31 12:24:52;;;;;;;1.60;1.50;;;;;;;8.10;66.51;99284.72;5209135;28;20205;-83
2022/03/31 12:27:24;;;;;;;1.23;1.23;;;;;;;8.05;66.15;99287.50;5199893;28;20033;-85
2022/03/31 12:30:04;;;;;;;2.10;1.88;;;;;;;8.06;65.73;99297.03;5186099;28;20596;-84
2022/03/31 12:32:45;;;;;;;1.85;1.75;;;;;;;8.14;65.54;99292.34;5210740;28;20052;-84
2022/03/31 12:35:16;;;;;;;1.25;1.23;;;;;;;8.13;65.89;99290.66;5201320;28;20028;-84
2022/03/31 12:37:47;;;;;;;0.57;0.57;;;;;;;7.84;67.18;99297.03;5224612;28;20037;-84
2022/03/31 12:40:18;;;;;;;0.73;0.73;;;;;;;7.35;69.59;99289.28;5221451;28;20052;-85
2022/03/31 12:43:00;;;;;;;1.05;1.05;;;;;;;7.34;69.07;99298.00;5201939;28;20026;-85
2022/03/31 12:45:34;;;;;;;0.90;0.90;;;;;;;7.63;67.15;99291.72;5194739;28;20029;-83
2022/03/31 12:48:09;;;;;;;4.57;2.70;;;;;;;7.68;66.45;99289.78;5223084;28;20049;-85
2022/03/31 12:50:41;;;;;;;1.77;1.58;;;;;;;7.52;69.04;99297.34;5221678;28;20035;-84